< < Back
Terminal Aerodrome Forecast


Current Version              Previous Versions:   1  2  3  4  5  6  7  8  9  

Terminal Aerodrome Forecast

100
FTUS44 KMRX 231724
TAFCHA
TAF
KCHA 231724Z 2318/2418 22005KT P6SM SCT050
     FM240300 00000KT P6SM SCT060 BKN150
     FM241400 20005KT P6SM SCT050 BKN250=



Latest METAR

332
SAUS80 KWBC 240600 RRA
MTRCHA
METAR KCHA 240553Z AUTO 00000KT 10SM CLR 23/20 A3023 RMK AO2 SLP227
T02330200 10306 20233 51001


USA.gov is the U.S. government's official web portal to all federal, state and local government web resources and services.